createdAt,value
2018-04-12T00:01:30.760Z,13.43
2018-04-12T00:04:03.489Z,12.77
2018-04-12T00:06:31.706Z,11.53
2018-04-12T00:08:59.949Z,13.23
2018-04-12T00:11:28.171Z,12.07
2018-04-12T00:13:56.419Z,13.13
2018-04-12T00:16:24.684Z,15.73
2018-04-12T00:18:53.011Z,13.83
2018-04-12T00:21:21.239Z,12.63
2018-04-12T00:23:49.477Z,12.70
2018-04-12T00:26:17.861Z,12.53
2018-04-12T00:28:46.848Z,9.60
2018-04-12T00:31:15.063Z,11.50
2018-04-12T00:33:43.275Z,10.83
2018-04-12T00:36:11.487Z,11.47
2018-04-12T00:38:39.728Z,12.17
2018-04-12T00:41:07.978Z,10.87
2018-04-12T00:43:36.189Z,15.90
2018-04-12T00:46:04.391Z,8.97
2018-04-12T00:48:32.594Z,11.37
2018-04-12T00:51:00.799Z,11.97
2018-04-12T00:53:40.864Z,11.27
2018-04-12T00:56:09.103Z,10.80
2018-04-12T00:58:37.319Z,9.70
2018-04-12T01:01:06.305Z,11.07
2018-04-12T01:03:34.508Z,10.57
2018-04-12T01:06:02.746Z,10.93
2018-04-12T01:08:30.939Z,8.87
2018-04-12T01:10:59.936Z,10.43
2018-04-12T01:13:28.906Z,12.20
2018-04-12T01:15:57.180Z,9.50
2018-04-12T01:18:25.387Z,9.17
2018-04-12T01:20:53.607Z,8.23
2018-04-12T01:23:22.005Z,12.57
2018-04-12T01:25:50.314Z,8.73
2018-04-12T01:28:18.571Z,9.50
2018-04-12T01:30:46.791Z,8.47
2018-04-12T01:33:16.926Z,8.77
2018-04-12T01:35:45.142Z,10.50
2018-04-12T01:38:13.400Z,11.03
2018-04-12T01:40:42.416Z,11.37
2018-04-12T01:43:10.607Z,10.27
2018-04-12T01:45:38.830Z,9.10
2018-04-12T01:48:07.031Z,10.97
2018-04-12T01:50:35.255Z,10.60
2018-04-12T01:53:03.485Z,10.80
2018-04-12T01:55:31.735Z,13.23
2018-04-12T01:58:00.722Z,12.03
2018-04-12T02:00:29.007Z,17.17
2018-04-12T02:02:57.234Z,10.57
2018-04-12T02:05:25.436Z,11.77
2018-04-12T02:07:53.663Z,9.90
2018-04-12T02:10:21.876Z,14.47
2018-04-12T02:12:50.087Z,12.20
2018-04-12T02:15:18.294Z,12.93
2018-04-12T02:17:46.548Z,11.33
2018-04-12T02:20:14.871Z,14.10
2018-04-12T02:22:43.893Z,10.97
2018-04-12T02:25:12.087Z,11.43
2018-04-12T02:27:40.319Z,11.77
2018-04-12T02:30:08.524Z,13.10
2018-04-12T02:32:36.838Z,11.27
2018-04-12T02:35:05.058Z,14.83
2018-04-12T02:37:33.287Z,17.47
2018-04-12T02:40:01.503Z,14.13
2018-04-12T02:42:30.502Z,13.53
2018-04-12T02:44:58.722Z,12.57
2018-04-12T02:47:26.954Z,13.70
2018-04-12T02:49:55.195Z,15.37
2018-04-12T02:52:23.422Z,15.33
2018-04-12T02:54:51.650Z,14.40
2018-04-12T02:57:19.866Z,11.17
2018-04-12T02:59:48.071Z,14.43
2018-04-12T03:02:16.296Z,12.83
2018-04-12T03:04:44.515Z,11.87
2018-04-12T03:07:12.862Z,12.10
2018-04-12T03:09:41.091Z,14.03
2018-04-12T03:12:09.399Z,14.07
2018-04-12T03:14:38.404Z,11.33
2018-04-12T03:17:06.667Z,15.27
2018-04-12T03:19:34.884Z,12.77
2018-04-12T03:22:03.194Z,11.67
2018-04-12T03:24:31.472Z,15.43
2018-04-12T03:26:59.682Z,13.67
2018-04-12T03:29:27.903Z,13.03
2018-04-12T03:31:56.113Z,15.20
2018-04-12T03:34:24.369Z,13.47
2018-04-12T03:36:52.735Z,13.23
2018-04-12T03:39:21.021Z,14.40
2018-04-12T03:41:49.263Z,14.63
2018-04-12T03:44:17.479Z,13.87
2018-04-12T03:46:45.777Z,14.13
2018-04-12T03:49:14.124Z,15.57
2018-04-12T03:51:42.323Z,10.57
2018-04-12T03:54:10.568Z,13.43
2018-04-12T03:56:38.787Z,13.23
2018-04-12T03:59:07.014Z,13.90
2018-04-12T04:01:35.222Z,12.30
2018-04-12T04:04:03.463Z,13.37
2018-04-12T04:06:31.671Z,13.07
2018-04-12T04:08:59.886Z,13.07
2018-04-12T04:11:28.111Z,14.43
2018-04-12T04:13:56.330Z,11.87
2018-04-12T04:16:36.629Z,11.57
2018-04-12T04:19:17.393Z,11.17
2018-04-12T04:21:46.480Z,15.40
2018-04-12T04:24:14.763Z,12.10
2018-04-12T04:26:43.076Z,11.87
2018-04-12T04:29:12.087Z,14.70
2018-04-12T04:31:40.302Z,12.93
2018-04-12T04:34:09.325Z,10.77
2018-04-12T04:36:37.569Z,15.50
2018-04-12T04:39:05.831Z,12.60
2018-04-12T04:41:34.040Z,13.87
2018-04-12T04:44:02.314Z,12.27
2018-04-12T04:46:30.584Z,11.50
2018-04-12T04:48:58.882Z,12.93
2018-04-12T04:51:27.164Z,13.83
2018-04-12T04:53:56.166Z,14.73
2018-04-12T04:56:25.379Z,13.50
2018-04-12T04:58:56.451Z,12.00
2018-04-12T05:01:25.550Z,13.13
2018-04-12T05:03:53.928Z,14.00
2018-04-12T05:06:22.162Z,11.23
2018-04-12T05:08:50.375Z,10.53
2018-04-12T05:11:19.387Z,14.80
2018-04-12T05:13:47.627Z,12.73
2018-04-12T05:16:15.859Z,13.50
2018-04-12T05:18:44.075Z,12.13
2018-04-12T05:21:12.408Z,12.53
2018-04-12T05:23:40.687Z,10.63
2018-04-12T05:26:08.926Z,14.07
2018-04-12T05:28:37.148Z,12.90
2018-04-12T05:31:05.351Z,12.00
2018-04-12T05:33:33.703Z,11.73
2018-04-12T05:36:02.086Z,15.17
2018-04-12T05:38:30.255Z,12.93
2018-04-12T05:40:58.603Z,11.57
2018-04-12T05:43:26.865Z,12.37
2018-04-12T05:45:54.995Z,11.10
2018-04-12T05:48:23.377Z,12.40
2018-04-12T05:50:51.596Z,13.37
2018-04-12T05:53:19.945Z,13.73
2018-04-12T05:55:48.142Z,13.57
2018-04-12T05:58:16.359Z,15.53
2018-04-12T06:00:44.602Z,13.07
2018-04-12T06:03:12.820Z,13.97
2018-04-12T06:05:41.843Z,11.53
2018-04-12T06:08:10.218Z,16.30
2018-04-12T06:10:38.569Z,13.77
2018-04-12T06:13:07.556Z,14.97
2018-04-12T06:15:35.815Z,14.67
2018-04-12T06:18:04.092Z,17.23
2018-04-12T06:20:32.339Z,16.43
2018-04-12T06:23:00.619Z,17.87
2018-04-12T06:25:28.964Z,21.10
2018-04-12T06:27:57.196Z,13.90
2018-04-12T06:30:25.546Z,14.93
2018-04-12T06:32:53.755Z,13.80
2018-04-12T06:35:22.003Z,13.47
2018-04-12T06:37:50.248Z,14.47
2018-04-12T06:40:18.476Z,12.03
2018-04-12T06:42:46.707Z,15.93
2018-04-12T06:45:14.951Z,13.83
2018-04-12T06:47:43.199Z,12.30
2018-04-12T06:50:17.945Z,12.07
2018-04-12T06:52:46.155Z,12.77
2018-04-12T06:55:14.400Z,14.47
2018-04-12T06:57:42.599Z,9.30
2018-04-12T07:00:11.655Z,11.60
2018-04-12T07:02:40.637Z,14.03
2018-04-12T07:05:08.857Z,15.27
2018-04-12T07:07:37.886Z,11.53
2018-04-12T07:10:06.231Z,10.23
2018-04-12T07:12:35.010Z,12.27
2018-04-12T07:15:03.263Z,39.30
2018-04-12T07:17:31.487Z,45.50
2018-04-12T07:19:59.775Z,45.97
2018-04-12T07:22:28.020Z,41.63
2018-04-12T07:24:56.350Z,45.60
2018-04-12T07:27:24.639Z,51.90
2018-04-12T07:29:55.269Z,50.33
2018-04-12T07:32:23.582Z,56.87
2018-04-12T07:45:03.299Z,59.80
2018-04-12T07:47:32.388Z,60.63
2018-04-12T07:50:02.213Z,62.27
2018-04-12T07:52:31.124Z,55.77
2018-04-12T07:57:32.736Z,65.73
2018-04-12T08:00:01.273Z,58.87
2018-04-12T08:02:31.172Z,73.40
2018-04-12T08:07:32.111Z,61.03
2018-04-12T08:10:01.136Z,64.47
2018-04-12T08:12:29.672Z,63.93
2018-04-12T08:14:58.088Z,57.37
2018-04-12T08:17:26.635Z,51.37
2018-04-12T08:19:56.744Z,58.53
2018-04-12T08:22:25.075Z,57.20
2018-04-12T08:24:54.193Z,55.77
2018-04-12T08:32:27.791Z,61.03
2018-04-12T08:34:56.884Z,60.83
2018-04-12T08:37:26.352Z,64.50
2018-04-12T08:39:55.064Z,55.27
2018-04-12T08:42:23.620Z,57.27
2018-04-12T08:49:57.353Z,68.47
2018-04-12T08:54:58.039Z,60.33
2018-04-12T08:57:26.394Z,55.50
2018-04-12T08:59:54.990Z,62.53
2018-04-12T09:02:23.472Z,59.53
2018-04-12T09:04:51.936Z,64.47
2018-04-12T09:07:20.225Z,63.67
2018-04-12T09:09:48.537Z,62.93
2018-04-12T09:12:16.876Z,63.93
2018-04-12T09:14:45.344Z,59.67
2018-04-12T09:17:13.959Z,60.83
2018-04-12T09:19:42.356Z,63.70
2018-04-12T09:22:10.652Z,56.63
2018-04-12T09:24:39.135Z,59.00
2018-04-12T09:27:07.475Z,57.20
2018-04-12T09:29:35.871Z,65.30
2018-04-12T09:32:04.150Z,71.33
2018-04-12T09:34:32.469Z,63.77
2018-04-12T09:37:00.732Z,51.07
2018-04-12T09:39:29.188Z,55.53
2018-04-12T09:41:57.556Z,44.73
2018-04-12T09:44:26.549Z,63.27
2018-04-12T09:46:54.834Z,60.53
2018-04-12T09:49:23.225Z,59.10
2018-04-12T09:51:51.485Z,55.93
2018-04-12T09:54:19.776Z,68.10
2018-04-12T09:56:48.231Z,71.23
2018-04-12T09:59:16.596Z,62.40
2018-04-12T10:01:51.291Z,59.10
2018-04-12T10:04:20.224Z,59.07
2018-04-12T10:06:52.500Z,67.73
2018-04-12T10:09:20.846Z,65.03
2018-04-12T10:11:49.323Z,56.33
2018-04-12T10:14:18.440Z,57.63
2018-04-12T10:16:46.758Z,61.20
2018-04-12T10:19:15.235Z,52.30
2018-04-12T10:21:43.546Z,62.13
2018-04-12T10:24:13.364Z,58.90
2018-04-12T10:26:41.637Z,57.80
2018-04-12T10:29:10.073Z,64.07
2018-04-12T10:31:38.357Z,60.17
2018-04-12T10:34:06.675Z,57.77
2018-04-12T10:36:35.172Z,63.57
2018-04-12T10:39:03.536Z,62.23
2018-04-12T10:41:31.977Z,60.43
2018-04-12T10:44:00.262Z,51.50
2018-04-12T10:46:28.566Z,56.93
2018-04-12T10:48:56.907Z,65.00
2018-04-12T10:51:25.251Z,53.57
2018-04-12T10:53:53.745Z,61.23
2018-04-12T10:56:22.083Z,59.27
2018-04-12T10:58:50.401Z,63.63
2018-04-12T11:01:20.284Z,57.77
2018-04-12T11:03:48.669Z,59.93
2018-04-12T11:06:16.931Z,49.00
2018-04-12T11:08:45.532Z,52.33
2018-04-12T11:11:13.835Z,49.73
2018-04-12T11:13:42.201Z,59.37
2018-04-12T11:16:10.475Z,49.63
2018-04-12T11:18:38.952Z,50.63
2018-04-12T11:21:07.404Z,49.50
2018-04-12T11:23:35.994Z,47.57
2018-04-12T11:26:04.607Z,54.90
2018-04-12T11:28:32.998Z,56.33
2018-04-12T11:31:01.319Z,58.07
2018-04-12T11:33:29.952Z,51.80
2018-04-12T11:35:59.955Z,50.40
2018-04-12T11:38:29.369Z,56.27
2018-04-12T11:40:57.827Z,53.23
2018-04-12T11:43:26.163Z,54.90
2018-04-12T11:45:54.572Z,43.77
2018-04-12T11:48:22.915Z,53.97
2018-04-12T11:50:51.439Z,49.83
2018-04-12T11:53:19.800Z,48.03
2018-04-12T11:55:48.136Z,51.47
2018-04-12T11:58:17.240Z,44.93
2018-04-12T12:00:45.565Z,41.47
2018-04-12T12:03:13.863Z,49.60
2018-04-12T12:05:42.377Z,46.03
2018-04-12T12:08:11.430Z,42.23
2018-04-12T12:10:39.827Z,42.07
2018-04-12T12:13:09.700Z,47.27
2018-04-12T12:15:38.067Z,42.60
2018-04-12T12:18:06.367Z,46.33
2018-04-12T12:20:36.151Z,43.13
2018-04-12T12:23:04.420Z,41.77
2018-04-12T12:25:32.872Z,46.53
2018-04-12T12:28:01.504Z,45.13
2018-04-12T12:30:29.984Z,50.37
2018-04-12T12:32:58.450Z,48.87
2018-04-12T12:35:26.788Z,40.37
2018-04-12T12:37:55.883Z,46.40
2018-04-12T12:40:25.100Z,42.67
2018-04-12T12:42:53.370Z,36.20
2018-04-12T12:47:54.131Z,39.77
2018-04-12T12:50:22.484Z,40.63
2018-04-12T12:52:50.805Z,45.30
2018-04-12T12:55:19.256Z,41.97
2018-04-12T12:57:50.841Z,37.53
2018-04-12T13:00:19.492Z,36.83
2018-04-12T13:02:52.448Z,34.60
2018-04-12T13:05:24.232Z,38.07
2018-04-12T13:07:52.664Z,34.87
2018-04-12T13:10:21.099Z,35.60
2018-04-12T13:12:49.676Z,41.70
2018-04-12T13:15:21.480Z,40.60
2018-04-12T13:22:54.755Z,34.60
2018-04-12T13:27:55.527Z,38.13
2018-04-12T13:30:23.997Z,45.13
2018-04-12T13:32:52.424Z,53.97
2018-04-12T13:35:20.868Z,38.87
2018-04-12T13:37:49.423Z,39.77
2018-04-12T13:42:50.151Z,37.30
2018-04-12T13:45:19.346Z,41.83
2018-04-12T13:47:47.672Z,36.07
2018-04-12T13:50:15.976Z,47.37
2018-04-12T13:52:47.020Z,39.63
2018-04-12T13:55:15.585Z,41.87
2018-04-12T13:57:43.922Z,38.20
2018-04-12T14:00:14.486Z,39.87
2018-04-12T14:02:43.025Z,40.20
2018-04-12T14:05:11.416Z,37.40
2018-04-12T14:07:40.017Z,33.20
2018-04-12T14:10:08.367Z,36.20
2018-04-12T14:12:37.424Z,33.10
2018-04-12T14:15:05.759Z,37.27
2018-04-12T14:17:34.067Z,37.43
2018-04-12T14:20:02.371Z,34.30
2018-04-12T14:22:30.791Z,38.50
2018-04-12T14:24:59.124Z,39.00
2018-04-12T14:27:27.630Z,33.73
2018-04-12T14:29:56.896Z,32.67
2018-04-12T14:32:25.239Z,24.43
2018-04-12T14:34:54.471Z,28.40
2018-04-12T14:37:22.795Z,24.40
2018-04-12T14:42:24.358Z,25.13
2018-04-12T14:44:52.643Z,28.87
2018-04-12T14:47:21.287Z,23.17
2018-04-12T14:49:50.392Z,27.67
2018-04-12T14:52:18.692Z,30.37
2018-04-12T14:54:47.262Z,25.70
2018-04-12T14:57:15.539Z,26.70
2018-04-12T14:59:43.846Z,21.37
2018-04-12T15:02:12.197Z,25.77
2018-04-12T15:04:40.516Z,27.90
2018-04-12T15:07:08.896Z,28.20
2018-04-12T15:09:38.749Z,61.37
2018-04-12T15:12:07.015Z,41.60
2018-04-12T15:14:35.366Z,37.00
2018-04-12T15:17:04.453Z,32.97
2018-04-12T15:19:32.876Z,35.20
2018-04-12T15:22:01.174Z,34.10
2018-04-12T15:24:29.664Z,34.67
2018-04-12T15:26:58.074Z,30.90
2018-04-12T15:29:26.340Z,35.97
2018-04-12T15:31:54.663Z,32.13
2018-04-12T15:36:55.596Z,33.97
2018-04-12T15:39:23.925Z,37.00
2018-04-12T15:41:52.204Z,38.93
2018-04-12T15:44:20.474Z,29.33
2018-04-12T15:46:48.737Z,35.87
2018-04-12T15:49:17.160Z,41.97
2018-04-12T15:51:45.483Z,39.93
2018-04-12T15:54:13.793Z,40.60
2018-04-12T15:56:42.220Z,41.13
2018-04-12T15:59:10.810Z,39.73
2018-04-12T16:01:39.059Z,42.47
2018-04-12T16:04:08.236Z,41.53
2018-04-12T16:06:36.556Z,42.37
2018-04-12T16:09:05.563Z,40.00
2018-04-12T16:11:34.198Z,40.03
2018-04-12T16:14:02.512Z,40.73
2018-04-12T16:16:30.825Z,44.20
2018-04-12T16:18:59.188Z,47.90
2018-04-12T16:21:27.499Z,48.60
2018-04-12T16:23:56.269Z,43.77
2018-04-12T16:26:24.609Z,46.13
2018-04-12T16:28:53.066Z,44.30
2018-04-12T16:31:21.984Z,40.40
2018-04-12T16:33:50.409Z,42.07
2018-04-12T16:36:20.324Z,41.90
2018-04-12T16:38:49.993Z,46.57
2018-04-12T16:41:18.448Z,43.63
2018-04-12T17:08:21.529Z,45.10
2018-04-12T17:10:51.587Z,41.03
2018-04-12T17:13:21.621Z,47.50
2018-04-12T17:15:50.832Z,43.00
2018-04-12T17:18:19.430Z,39.13
2018-04-12T17:20:48.383Z,46.57
2018-04-12T17:25:52.328Z,46.83
2018-04-12T17:28:23.964Z,46.60
2018-04-12T17:30:52.724Z,44.87
2018-04-12T17:40:59.759Z,62.83
2018-04-12T17:43:27.964Z,38.60
2018-04-12T17:45:56.170Z,27.87
2018-04-12T17:48:24.382Z,21.40
2018-04-12T17:50:52.607Z,23.93
2018-04-12T17:53:20.831Z,13.53
2018-04-12T17:55:49.823Z,21.37
2018-04-12T17:58:18.032Z,16.00
2018-04-12T18:00:46.260Z,20.80
2018-04-12T18:03:14.566Z,23.23
2018-04-12T18:05:42.804Z,27.17
2018-04-12T18:08:11.780Z,27.93
2018-04-12T18:10:39.987Z,31.80
2018-04-12T18:13:08.227Z,25.03
2018-04-12T18:15:36.435Z,21.80
2018-04-12T18:18:04.673Z,19.30
2018-04-12T18:20:32.883Z,21.83
2018-04-12T18:23:01.087Z,19.37
2018-04-12T18:25:29.299Z,18.77
2018-04-12T18:27:57.506Z,22.40
2018-04-12T18:30:25.707Z,16.77
2018-04-12T18:32:53.921Z,17.00
2018-04-12T18:35:22.131Z,14.67
2018-04-12T18:37:51.085Z,14.60
2018-04-12T18:40:19.283Z,12.27
2018-04-12T18:42:48.268Z,14.73
2018-04-12T18:45:16.463Z,13.60
2018-04-12T18:47:44.658Z,11.37
2018-04-12T18:50:12.859Z,12.20
2018-04-12T18:52:41.064Z,11.70
2018-04-12T18:55:10.045Z,13.90
2018-04-12T18:57:38.242Z,10.07
2018-04-12T19:00:06.446Z,11.80
2018-04-12T19:02:34.653Z,13.00
2018-04-12T19:05:02.854Z,11.03
2018-04-12T19:07:31.835Z,12.30
2018-04-12T19:10:00.858Z,13.60
2018-04-12T19:12:29.055Z,11.90
2018-04-12T19:14:57.260Z,11.27
2018-04-12T19:17:25.463Z,11.57
2018-04-12T19:19:54.457Z,12.50
2018-04-12T19:22:33.320Z,9.33
2018-04-12T19:40:36.391Z,9.93
2018-04-12T19:43:04.726Z,10.70
2018-04-12T19:45:33.721Z,9.73
2018-04-12T19:48:01.916Z,11.40
2018-04-12T19:50:30.115Z,12.23
2018-04-12T19:52:59.079Z,10.83
2018-04-12T19:55:27.313Z,11.23
2018-04-12T19:57:55.514Z,8.77
2018-04-12T20:00:23.706Z,12.37
2018-04-12T20:02:51.914Z,10.07
2018-04-12T20:05:23.663Z,9.47
2018-04-12T20:07:51.955Z,10.60
2018-04-12T20:10:20.110Z,13.32
2018-04-12T20:12:48.321Z,11.73
2018-04-12T20:15:17.575Z,12.60
2018-04-12T20:17:45.905Z,11.00
2018-04-12T20:20:14.291Z,44.67
2018-04-12T20:22:44.998Z,43.17
2018-04-12T20:25:14.509Z,44.73
2018-04-12T20:27:42.698Z,20.57
2018-04-12T20:30:10.979Z,16.27
2018-04-12T20:32:39.183Z,13.10
2018-04-12T20:35:07.390Z,14.00
2018-04-12T20:37:35.608Z,12.33
2018-04-12T20:40:03.807Z,11.73
2018-04-12T20:42:32.011Z,10.17
2018-04-12T20:45:00.215Z,11.50
2018-04-12T20:47:29.188Z,12.80
2018-04-12T20:49:57.394Z,10.53
2018-04-12T20:52:25.624Z,14.43
2018-04-12T20:54:54.083Z,12.97
2018-04-12T20:57:22.294Z,9.93
2018-04-12T20:59:51.266Z,12.80
2018-04-12T21:02:19.474Z,9.83
2018-04-12T21:04:47.683Z,12.20
2018-04-12T21:07:15.905Z,11.13
2018-04-12T21:09:45.106Z,10.20
2018-04-12T21:12:14.209Z,9.20
2018-04-12T21:14:43.261Z,9.90
2018-04-12T21:17:11.551Z,10.53
2018-04-12T21:19:41.160Z,11.10
2018-04-12T21:22:09.469Z,12.13
2018-04-12T21:24:37.663Z,8.53
2018-04-12T21:27:05.875Z,10.60
2018-04-12T21:29:34.093Z,12.30
2018-04-12T21:32:02.281Z,9.53
2018-04-12T21:34:30.466Z,13.23
2018-04-12T21:36:58.666Z,9.07
2018-04-12T21:39:27.060Z,13.37
2018-04-12T21:41:55.259Z,8.77
2018-04-12T21:44:23.453Z,9.47
2018-04-12T21:46:51.709Z,10.27
2018-04-12T21:49:19.919Z,15.67
2018-04-12T21:51:48.118Z,13.83
2018-04-12T21:54:16.314Z,13.07
2018-04-12T21:56:44.514Z,11.30
2018-04-12T21:59:12.715Z,14.23
2018-04-12T22:01:40.902Z,15.83
2018-04-12T22:04:09.102Z,12.47
2018-04-12T22:06:38.068Z,11.47
2018-04-12T22:09:06.263Z,11.57
2018-04-12T22:11:34.479Z,13.27
2018-04-12T22:14:02.671Z,10.27
2018-04-12T22:16:30.883Z,11.87
2018-04-12T22:18:59.102Z,8.87
2018-04-12T22:21:28.879Z,11.03
2018-04-12T22:23:57.866Z,15.47
2018-04-12T22:26:26.072Z,13.60
2018-04-12T22:28:55.860Z,12.40
2018-04-12T22:31:24.059Z,10.27
2018-04-12T22:33:52.288Z,19.27
2018-04-12T22:36:21.367Z,23.40
2018-04-12T22:38:49.554Z,14.20
2018-04-12T22:41:17.787Z,13.97
2018-04-12T22:43:46.001Z,12.23
2018-04-12T22:46:14.226Z,12.17
2018-04-12T22:48:42.444Z,12.83
2018-04-12T22:51:10.661Z,11.87
2018-04-12T22:56:14.463Z,11.80
2018-04-12T22:58:42.682Z,18.40
2018-04-12T23:03:44.016Z,13.87
2018-04-12T23:06:12.326Z,10.80
2018-04-12T23:11:13.764Z,10.17
2018-04-12T23:13:41.967Z,11.77
2018-04-12T23:18:45.826Z,13.23
2018-04-12T23:21:14.159Z,12.90
2018-04-12T23:26:14.855Z,10.77
2018-04-12T23:28:43.979Z,11.47
2018-04-12T23:31:12.516Z,9.47
2018-04-12T23:36:13.123Z,12.43
2018-04-12T23:38:41.423Z,11.00
2018-04-12T23:41:09.747Z,10.57
2018-04-12T23:43:37.977Z,14.73
2018-04-12T23:46:06.193Z,11.83
2018-04-12T23:51:10.251Z,12.40
2018-04-12T23:53:38.578Z,11.20
2018-04-12T23:58:40.764Z,12.10
